KGEG/GEG METAR and TAF weather

Enter ICAO airport designator
Station Type Date Time Source
KGEG METAR 2019/09/20 09:53 UTC NOAA

KGEG 200953Z 16005KT 10SM SCT120 09/06 A2994 RMK AO2 SLP138 T00940056


Station Type Date Time Source
KGEG Decoded METAR 2019/09/20 09:53 UTC NOAA

SPOKANE INTERNATIONAL AIRPORT , WA, United States (KGEG) 47-37N 117-32W 735M
Sep 20, 2019 - 05:53 AM EDT / 2019.09.20 0953 UTC
Wind: from the SSE (160 degrees) at 6 MPH (5 KT):0
Visibility: 10 mile(s):0
Sky conditions: partly cloudy
Temperature: 48.9 F (9.4 C)
Dew Point: 42.1 F (5.6 C)
Relative Humidity: 77%
Pressure (altimeter): 29.94 in. Hg (1013 hPa)
ob: KGEG 200953Z 16005KT 10SM SCT120 09/06 A2994 RMK AO2 SLP138 T00940056
cycle: 10

Station Type Date Time Source
KGEG TAF 2019/09/20 06:39 UTC NOAA

TAF KGEG 200536Z 2006/2106 17005KT P6SM FEW080 SCT200
FM201100 17005KT P6SM BKN080 OVC150
TEMPO 2014/2016 -RA SCT060 OVC080
FM201900 25009KT P6SM SCT060 BKN100
FM210200 21006KT P6SM FEW080

Example: see airport list